Dragoon, AZ (85609)

10:20 AM MST on July 28, 2016 (GMT -0700)
Golden Rule Vineyards | | Change Station

Elev 4360 ft 32.06 °N, 109.96 °W | Updated 7 seconds ago

Clear
Clear
85.6 °F
Feels Like 86 °F
N
0.0
Wind Variable Wind from East
Gusts 4.0 mph

Today
High -- | Low -- °F
--% Chance of Precip.
Yesterday
High -- | Low -- °F
Precip. -- in
Pressure 29.96 in
Visibility 10.0 miles
Clouds Clear
Heat Index 86 °F
Dew Point 61 °F
Humidity 43%
Rainfall 0.00 in
Snow Depth Not available.
5:33 AM 7:19 PM
Waning Crescent, 30% visible
METAR KFHU 281558Z AUTO 04003KT 10SM CLR 27/15 A3018 RMK AO2 SLP145 T02670147
Pressure 29.96 in
Visibility 10.0 miles
Clouds Clear
Heat Index 86 °F
Dew Point 61 °F
Humidity 43%
Rainfall 0.00 in
Snow Depth Not available.
5:33 AM 7:19 PM
Waning Crescent, 30% visible
METAR KFHU 281558Z AUTO 04003KT 10SM CLR 27/15 A3018 RMK AO2 SLP145 T02670147

10-Day Weather Forecast

Almanac

Astronomy

Jul. 28, 2016 Rise Set
Actual Time
Civil Twilight
Nautical Twilight
Astronomical Twilight
Moon
Length of Visible Light
Length of Day
Tomorrow will be .
, % of the Moon is Illuminated

Today's Extremes

State Highs State Lows

Community

WunderPhotos

Upload Photos

1,928,163 photos uploaded!

WunderBlog® & News

Nearby

Air Quality

  Air Quality AQ Index Pollutant
Not available.

Snow Depth

Station Depth Elevation

Earthquake Activity

City Distance Mag. Time & Date
Minimum magnitude displayed is 2.5.

Coastal Water Temperatures

Place Temperature

Stations

Nearby Weather Stations

Station Location Temp. Windchill Dew Point Humidity Wind Precip. Elev Updated Type
                   

Watches & Warnings

There are currently no watches in effect.